sensor_id;sensor_type;location;lat;lon;timestamp;temperature;humidity
7936;DHT22;4013;49.744;8.118;2023-02-01T00:02:17;6.00;99.90
7936;DHT22;4013;49.744;8.118;2023-02-01T00:04:44;6.10;99.90
7936;DHT22;4013;49.744;8.118;2023-02-01T00:07:11;6.10;99.90
7936;DHT22;4013;49.744;8.118;2023-02-01T00:09:38;6.10;99.90
7936;DHT22;4013;49.744;8.118;2023-02-01T00:12:05;6.10;99.90
7936;DHT22;4013;49.744;8.118;2023-02-01T00:14:33;6.10;99.90
7936;DHT22;4013;49.744;8.118;2023-02-01T00:17:04;6.10;99.90
7936;DHT22;4013;49.744;8.118;2023-02-01T00:19:31;6.10;99.90
7936;DHT22;4013;49.744;8.118;2023-02-01T00:21:59;6.10;99.90
7936;DHT22;4013;49.744;8.118;2023-02-01T00:24:26;6.10;99.90
7936;DHT22;4013;49.744;8.118;2023-02-01T00:26:53;6.20;99.90
7936;DHT22;4013;49.744;8.118;2023-02-01T00:29:20;6.20;99.90
7936;DHT22;4013;49.744;8.118;2023-02-01T00:31:50;6.20;99.90
7936;DHT22;4013;49.744;8.118;2023-02-01T00:34:18;6.20;99.90
7936;DHT22;4013;49.744;8.118;2023-02-01T00:36:45;6.20;99.90
7936;DHT22;4013;49.744;8.118;2023-02-01T00:39:13;6.20;99.90
7936;DHT22;4013;49.744;8.118;2023-02-01T00:41:40;6.30;99.90
7936;DHT22;4013;49.744;8.118;2023-02-01T00:44:07;6.30;99.90
7936;DHT22;4013;49.744;8.118;2023-02-01T00:46:34;6.20;99.90
7936;DHT22;4013;49.744;8.118;2023-02-01T00:49:03;6.20;99.90
7936;DHT22;4013;49.744;8.118;2023-02-01T00:51:31;6.30;99.90
7936;DHT22;4013;49.744;8.118;2023-02-01T00:53:58;6.30;99.90
7936;DHT22;4013;49.744;8.118;2023-02-01T00:56:25;6.30;99.90
7936;DHT22;4013;49.744;8.118;2023-02-01T00:58:53;6.30;99.90
7936;DHT22;4013;49.744;8.118;2023-02-01T01:01:22;6.30;99.90
7936;DHT22;4013;49.744;8.118;2023-02-01T01:03:51;6.20;99.90
7936;DHT22;4013;49.744;8.118;2023-02-01T01:06:20;6.20;99.90
7936;DHT22;4013;49.744;8.118;2023-02-01T01:08:49;6.20;99.90
7936;DHT22;4013;49.744;8.118;2023-02-01T01:11:18;6.20;99.90
7936;DHT22;4013;49.744;8.118;2023-02-01T01:13:46;6.20;99.90
7936;DHT22;4013;49.744;8.118;2023-02-01T01:16:14;6.10;99.90
7936;DHT22;4013;49.744;8.118;2023-02-01T01:18:42;6.20;99.90
7936;DHT22;4013;49.744;8.118;2023-02-01T01:21:12;6.20;99.90
7936;DHT22;4013;49.744;8.118;2023-02-01T01:23:41;6.20;99.90
7936;DHT22;4013;49.744;8.118;2023-02-01T01:26:11;6.30;99.90
7936;DHT22;4013;49.744;8.118;2023-02-01T01:28:39;6.30;99.90
7936;DHT22;4013;49.744;8.118;2023-02-01T01:31:08;6.30;99.90
7936;DHT22;4013;49.744;8.118;2023-02-01T01:33:35;6.30;99.90
7936;DHT22;4013;49.744;8.118;2023-02-01T01:36:04;6.30;99.90
7936;DHT22;4013;49.744;8.118;2023-02-01T01:38:32;6.30;99.90
7936;DHT22;4013;49.744;8.118;2023-02-01T01:41:00;6.30;99.90
7936;DHT22;4013;49.744;8.118;2023-02-01T01:43:49;6.30;99.90
7936;DHT22;4013;49.744;8.118;2023-02-01T01:46:18;6.40;99.90
7936;DHT22;4013;49.744;8.118;2023-02-01T01:48:46;6.30;99.90
7936;DHT22;4013;49.744;8.118;2023-02-01T01:51:17;6.30;99.90
7936;DHT22;4013;49.744;8.118;2023-02-01T01:53:53;6.30;99.90
7936;DHT22;4013;49.744;8.118;2023-02-01T01:56:25;6.30;99.90
7936;DHT22;4013;49.744;8.118;2023-02-01T01:58:53;6.30;99.90
7936;DHT22;4013;49.744;8.118;2023-02-01T02:01:20;6.30;99.90
7936;DHT22;4013;49.744;8.118;2023-02-01T02:03:48;6.30;99.90
7936;DHT22;4013;49.744;8.118;2023-02-01T02:06:23;6.30;99.90
7936;DHT22;4013;49.744;8.118;2023-02-01T02:08:53;6.20;99.90
7936;DHT22;4013;49.744;8.118;2023-02-01T02:11:20;6.20;99.90
7936;DHT22;4013;49.744;8.118;2023-02-01T02:13:50;6.20;99.90
7936;DHT22;4013;49.744;8.118;2023-02-01T02:22:48;6.20;99.90
7936;DHT22;4013;49.744;8.118;2023-02-01T02:25:38;6.10;99.90
7936;DHT22;4013;49.744;8.118;2023-02-01T02:28:16;6.10;99.90
7936;DHT22;4013;49.744;8.118;2023-02-01T02:33:50;6.10;99.90
7936;DHT22;4013;49.744;8.118;2023-02-01T02:36:25;6.10;99.90
7936;DHT22;4013;49.744;8.118;2023-02-01T02:39:03;6.20;99.90
7936;DHT22;4013;49.744;8.118;2023-02-01T02:41:33;6.20;99.90
7936;DHT22;4013;49.744;8.118;2023-02-01T02:44:24;6.20;99.90
7936;DHT22;4013;49.744;8.118;2023-02-01T02:47:18;6.20;99.90
7936;DHT22;4013;49.744;8.118;2023-02-01T02:50:02;6.20;99.90
7936;DHT22;4013;49.744;8.118;2023-02-01T02:52:51;6.20;99.90
7936;DHT22;4013;49.744;8.118;2023-02-01T02:55:38;6.20;99.90
7936;DHT22;4013;49.744;8.118;2023-02-01T02:58:07;6.20;99.90
7936;DHT22;4013;49.744;8.118;2023-02-01T03:00:53;6.20;99.90
7936;DHT22;4013;49.744;8.118;2023-02-01T03:03:39;6.30;99.90
7936;DHT22;4013;49.744;8.118;2023-02-01T03:06:25;6.30;99.90
7936;DHT22;4013;49.744;8.118;2023-02-01T03:08:56;6.30;99.90
7936;DHT22;4013;49.744;8.118;2023-02-01T03:11:24;6.30;99.90
7936;DHT22;4013;49.744;8.118;2023-02-01T03:14:14;6.30;99.90
7936;DHT22;4013;49.744;8.118;2023-02-01T03:16:45;6.30;99.90
7936;DHT22;4013;49.744;8.118;2023-02-01T03:19:18;6.30;99.90
7936;DHT22;4013;49.744;8.118;2023-02-01T03:21:50;6.30;99.90
7936;DHT22;4013;49.744;8.118;2023-02-01T03:24:22;6.30;99.90
7936;DHT22;4013;49.744;8.118;2023-02-01T03:27:02;6.20;99.90
7936;DHT22;4013;49.744;8.118;2023-02-01T03:29:37;6.10;99.90
7936;DHT22;4013;49.744;8.118;2023-02-01T03:32:04;6.10;99.90
7936;DHT22;4013;49.744;8.118;2023-02-01T03:34:32;6.00;99.90
7936;DHT22;4013;49.744;8.118;2023-02-01T03:37:04;6.00;99.90
7936;DHT22;4013;49.744;8.118;2023-02-01T03:39:36;6.00;99.90
7936;DHT22;4013;49.744;8.118;2023-02-01T03:42:09;5.90;99.90
7936;DHT22;4013;49.744;8.118;2023-02-01T03:44:40;5.90;99.90
7936;DHT22;4013;49.744;8.118;2023-02-01T03:47:10;5.90;99.90
7936;DHT22;4013;49.744;8.118;2023-02-01T03:49:41;5.90;99.90
7936;DHT22;4013;49.744;8.118;2023-02-01T03:52:14;5.90;99.90
7936;DHT22;4013;49.744;8.118;2023-02-01T03:54:42;5.80;99.90
7936;DHT22;4013;49.744;8.118;2023-02-01T03:57:14;5.80;99.90
7936;DHT22;4013;49.744;8.118;2023-02-01T03:59:44;5.80;99.90
7936;DHT22;4013;49.744;8.118;2023-02-01T04:02:11;5.80;99.90
7936;DHT22;4013;49.744;8.118;2023-02-01T04:04:38;5.80;99.90
7936;DHT22;4013;49.744;8.118;2023-02-01T04:07:05;5.80;99.90
7936;DHT22;4013;49.744;8.118;2023-02-01T04:09:33;5.80;99.90
7936;DHT22;4013;49.744;8.118;2023-02-01T04:12:00;5.70;99.90
7936;DHT22;4013;49.744;8.118;2023-02-01T04:14:27;5.70;99.90
7936;DHT22;4013;49.744;8.118;2023-02-01T04:16:54;5.70;99.90
7936;DHT22;4013;49.744;8.118;2023-02-01T04:19:21;5.70;99.90
7936;DHT22;4013;49.744;8.118;2023-02-01T04:21:48;5.70;99.90
7936;DHT22;4013;49.744;8.118;2023-02-01T04:24:15;5.70;99.90
7936;DHT22;4013;49.744;8.118;2023-02-01T04:26:43;5.70;99.90
7936;DHT22;4013;49.744;8.118;2023-02-01T04:29:10;5.70;99.90
7936;DHT22;4013;49.744;8.118;2023-02-01T04:31:37;5.60;99.90
7936;DHT22;4013;49.744;8.118;2023-02-01T04:34:04;5.60;99.90
7936;DHT22;4013;49.744;8.118;2023-02-01T04:36:31;5.60;99.90
7936;DHT22;4013;49.744;8.118;2023-02-01T04:38:58;5.50;99.90
7936;DHT22;4013;49.744;8.118;2023-02-01T04:41:25;5.50;99.90
7936;DHT22;4013;49.744;8.118;2023-02-01T04:43:53;5.50;99.90
7936;DHT22;4013;49.744;8.118;2023-02-01T04:46:20;5.40;99.90
7936;DHT22;4013;49.744;8.118;2023-02-01T04:48:47;5.40;99.90
7936;DHT22;4013;49.744;8.118;2023-02-01T04:51:14;5.30;99.90
7936;DHT22;4013;49.744;8.118;2023-02-01T04:53:41;5.30;99.90
7936;DHT22;4013;49.744;8.118;2023-02-01T04:56:08;5.30;99.90
7936;DHT22;4013;49.744;8.118;2023-02-01T04:58:35;5.30;99.90
7936;DHT22;4013;49.744;8.118;2023-02-01T05:01:04;5.30;99.90
7936;DHT22;4013;49.744;8.118;2023-02-01T05:03:31;5.30;99.90
7936;DHT22;4013;49.744;8.118;2023-02-01T05:05:58;5.30;99.90
7936;DHT22;4013;49.744;8.118;2023-02-01T05:08:25;5.30;99.90
7936;DHT22;4013;49.744;8.118;2023-02-01T05:10:54;5.30;99.90
7936;DHT22;4013;49.744;8.118;2023-02-01T05:13:21;5.30;99.90
7936;DHT22;4013;49.744;8.118;2023-02-01T05:16:07;5.40;99.90
7936;DHT22;4013;49.744;8.118;2023-02-01T05:18:34;5.30;99.90
7936;DHT22;4013;49.744;8.118;2023-02-01T05:21:01;5.40;99.90
7936;DHT22;4013;49.744;8.118;2023-02-01T05:23:28;5.30;99.90
7936;DHT22;4013;49.744;8.118;2023-02-01T05:25:58;5.30;99.90
7936;DHT22;4013;49.744;8.118;2023-02-01T05:28:26;5.40;99.90
7936;DHT22;4013;49.744;8.118;2023-02-01T05:30:53;5.40;99.90
7936;DHT22;4013;49.744;8.118;2023-02-01T05:33:21;5.40;99.90
7936;DHT22;4013;49.744;8.118;2023-02-01T05:35:48;5.50;99.90
7936;DHT22;4013;49.744;8.118;2023-02-01T05:38:16;5.50;99.90
7936;DHT22;4013;49.744;8.118;2023-02-01T05:40:43;5.50;99.90
7936;DHT22;4013;49.744;8.118;2023-02-01T05:43:15;5.50;99.90
7936;DHT22;4013;49.744;8.118;2023-02-01T05:45:42;5.50;99.90
7936;DHT22;4013;49.744;8.118;2023-02-01T05:48:09;5.60;99.90
7936;DHT22;4013;49.744;8.118;2023-02-01T05:50:37;5.60;99.90
7936;DHT22;4013;49.744;8.118;2023-02-01T05:53:04;5.60;99.90
7936;DHT22;4013;49.744;8.118;2023-02-01T05:55:32;5.60;99.90
7936;DHT22;4013;49.744;8.118;2023-02-01T05:57:59;5.60;99.90
7936;DHT22;4013;49.744;8.118;2023-02-01T06:00:26;5.60;99.90
7936;DHT22;4013;49.744;8.118;2023-02-01T06:02:56;5.70;99.90
7936;DHT22;4013;49.744;8.118;2023-02-01T06:05:23;5.70;99.90
7936;DHT22;4013;49.744;8.118;2023-02-01T06:07:52;5.70;99.90
7936;DHT22;4013;49.744;8.118;2023-02-01T06:10:19;5.80;99.90
7936;DHT22;4013;49.744;8.118;2023-02-01T06:12:46;5.70;99.90
7936;DHT22;4013;49.744;8.118;2023-02-01T06:15:13;5.70;99.90
7936;DHT22;4013;49.744;8.118;2023-02-01T06:17:43;5.70;99.90
7936;DHT22;4013;49.744;8.118;2023-02-01T06:20:12;5.80;99.90
7936;DHT22;4013;49.744;8.118;2023-02-01T06:22:39;5.80;99.90
7936;DHT22;4013;49.744;8.118;2023-02-01T06:25:10;5.80;99.90
7936;DHT22;4013;49.744;8.118;2023-02-01T06:27:37;5.70;99.90
7936;DHT22;4013;49.744;8.118;2023-02-01T06:30:05;5.60;99.90
7936;DHT22;4013;49.744;8.118;2023-02-01T06:32:32;5.50;99.90
7936;DHT22;4013;49.744;8.118;2023-02-01T06:34:59;5.50;99.90
7936;DHT22;4013;49.744;8.118;2023-02-01T06:37:26;5.50;99.90
7936;DHT22;4013;49.744;8.118;2023-02-01T06:39:54;5.40;99.90
7936;DHT22;4013;49.744;8.118;2023-02-01T06:42:23;5.40;99.90
7936;DHT22;4013;49.744;8.118;2023-02-01T06:44:51;5.40;99.90
7936;DHT22;4013;49.744;8.118;2023-02-01T06:47:18;5.40;99.90
7936;DHT22;4013;49.744;8.118;2023-02-01T06:49:45;5.40;99.90
7936;DHT22;4013;49.744;8.118;2023-02-01T06:52:12;5.40;99.90
7936;DHT22;4013;49.744;8.118;2023-02-01T06:54:39;5.40;99.90
7936;DHT22;4013;49.744;8.118;2023-02-01T06:57:06;5.40;99.90
7936;DHT22;4013;49.744;8.118;2023-02-01T06:59:34;5.30;99.90
7936;DHT22;4013;49.744;8.118;2023-02-01T07:02:01;5.30;99.90
7936;DHT22;4013;49.744;8.118;2023-02-01T07:04:28;5.30;99.90
7936;DHT22;4013;49.744;8.118;2023-02-01T07:06:55;5.30;99.90
7936;DHT22;4013;49.744;8.118;2023-02-01T07:09:22;5.30;99.90
7936;DHT22;4013;49.744;8.118;2023-02-01T07:11:49;5.30;99.90
7936;DHT22;4013;49.744;8.118;2023-02-01T07:14:16;5.30;99.90
7936;DHT22;4013;49.744;8.118;2023-02-01T07:16:45;5.20;99.90
7936;DHT22;4013;49.744;8.118;2023-02-01T07:19:11;5.20;99.90
7936;DHT22;4013;49.744;8.118;2023-02-01T07:21:38;5.30;99.90
7936;DHT22;4013;49.744;8.118;2023-02-01T07:24:06;5.20;99.90
7936;DHT22;4013;49.744;8.118;2023-02-01T07:26:33;5.30;99.90
7936;DHT22;4013;49.744;8.118;2023-02-01T07:29:00;5.30;99.90
7936;DHT22;4013;49.744;8.118;2023-02-01T07:31:27;5.30;99.90
7936;DHT22;4013;49.744;8.118;2023-02-01T07:33:55;5.30;99.90
7936;DHT22;4013;49.744;8.118;2023-02-01T07:36:23;5.30;99.90
7936;DHT22;4013;49.744;8.118;2023-02-01T07:38:50;5.30;99.90
7936;DHT22;4013;49.744;8.118;2023-02-01T07:41:18;5.20;99.90
7936;DHT22;4013;49.744;8.118;2023-02-01T07:43:45;5.30;99.90
7936;DHT22;4013;49.744;8.118;2023-02-01T07:46:12;5.30;99.90
7936;DHT22;4013;49.744;8.118;2023-02-01T07:48:40;5.20;99.90
7936;DHT22;4013;49.744;8.118;2023-02-01T07:51:11;5.30;99.90
7936;DHT22;4013;49.744;8.118;2023-02-01T07:53:38;5.30;99.90
7936;DHT22;4013;49.744;8.118;2023-02-01T07:56:10;5.30;99.90
7936;DHT22;4013;49.744;8.118;2023-02-01T07:58:38;5.30;99.90
7936;DHT22;4013;49.744;8.118;2023-02-01T08:01:05;5.30;99.90
7936;DHT22;4013;49.744;8.118;2023-02-01T08:03:50;5.40;99.90
7936;DHT22;4013;49.744;8.118;2023-02-01T08:06:19;5.30;99.90
7936;DHT22;4013;49.744;8.118;2023-02-01T08:08:46;5.40;99.90
7936;DHT22;4013;49.744;8.118;2023-02-01T08:11:14;5.40;99.90
7936;DHT22;4013;49.744;8.118;2023-02-01T08:13:41;5.50;99.90
7936;DHT22;4013;49.744;8.118;2023-02-01T08:16:10;5.60;99.90
7936;DHT22;4013;49.744;8.118;2023-02-01T08:18:38;5.60;99.90
7936;DHT22;4013;49.744;8.118;2023-02-01T08:21:06;5.70;99.90
7936;DHT22;4013;49.744;8.118;2023-02-01T08:23:36;5.70;99.90
7936;DHT22;4013;49.744;8.118;2023-02-01T08:26:10;5.80;99.90
7936;DHT22;4013;49.744;8.118;2023-02-01T08:28:38;5.80;99.90
7936;DHT22;4013;49.744;8.118;2023-02-01T08:31:07;5.80;99.90
7936;DHT22;4013;49.744;8.118;2023-02-01T08:33:35;5.80;99.90
7936;DHT22;4013;49.744;8.118;2023-02-01T08:36:03;5.80;99.90
7936;DHT22;4013;49.744;8.118;2023-02-01T08:38:35;5.80;99.90
7936;DHT22;4013;49.744;8.118;2023-02-01T08:41:06;5.80;99.90
7936;DHT22;4013;49.744;8.118;2023-02-01T08:43:34;5.80;99.90
7936;DHT22;4013;49.744;8.118;2023-02-01T08:46:01;5.90;99.90
7936;DHT22;4013;49.744;8.118;2023-02-01T08:48:28;6.00;99.90
7936;DHT22;4013;49.744;8.118;2023-02-01T08:50:55;6.00;99.90
7936;DHT22;4013;49.744;8.118;2023-02-01T08:53:23;6.00;99.90
7936;DHT22;4013;49.744;8.118;2023-02-01T08:55:51;6.00;99.90
7936;DHT22;4013;49.744;8.118;2023-02-01T08:58:18;6.10;99.90
7936;DHT22;4013;49.744;8.118;2023-02-01T09:00:47;6.10;99.90
7936;DHT22;4013;49.744;8.118;2023-02-01T09:03:15;6.20;99.90
7936;DHT22;4013;49.744;8.118;2023-02-01T09:05:42;6.20;99.90
7936;DHT22;4013;49.744;8.118;2023-02-01T09:08:11;6.20;99.90
7936;DHT22;4013;49.744;8.118;2023-02-01T09:10:40;6.20;99.90
7936;DHT22;4013;49.744;8.118;2023-02-01T09:13:09;6.20;99.90
7936;DHT22;4013;49.744;8.118;2023-02-01T09:15:37;6.20;99.90
7936;DHT22;4013;49.744;8.118;2023-02-01T09:18:04;6.20;99.90
7936;DHT22;4013;49.744;8.118;2023-02-01T09:20:31;6.10;99.90
7936;DHT22;4013;49.744;8.118;2023-02-01T09:22:58;6.10;99.90
7936;DHT22;4013;49.744;8.118;2023-02-01T09:25:25;6.20;99.90
7936;DHT22;4013;49.744;8.118;2023-02-01T09:27:53;6.20;99.90
7936;DHT22;4013;49.744;8.118;2023-02-01T09:30:21;6.30;99.90
7936;DHT22;4013;49.744;8.118;2023-02-01T09:32:48;6.40;99.90
7936;DHT22;4013;49.744;8.118;2023-02-01T09:35:15;6.40;99.90
7936;DHT22;4013;49.744;8.118;2023-02-01T09:37:42;6.50;99.90
7936;DHT22;4013;49.744;8.118;2023-02-01T09:40:12;6.50;99.90
7936;DHT22;4013;49.744;8.118;2023-02-01T09:42:59;6.50;99.90
7936;DHT22;4013;49.744;8.118;2023-02-01T09:45:32;6.60;99.90
7936;DHT22;4013;49.744;8.118;2023-02-01T09:48:08;6.60;99.90
7936;DHT22;4013;49.744;8.118;2023-02-01T09:50:40;6.50;99.90
7936;DHT22;4013;49.744;8.118;2023-02-01T09:53:12;6.60;99.90
7936;DHT22;4013;49.744;8.118;2023-02-01T09:55:45;6.60;99.90
7936;DHT22;4013;49.744;8.118;2023-02-01T09:58:16;6.60;99.90
7936;DHT22;4013;49.744;8.118;2023-02-01T10:00:50;6.60;99.90
7936;DHT22;4013;49.744;8.118;2023-02-01T10:03:18;6.70;99.90
7936;DHT22;4013;49.744;8.118;2023-02-01T10:06:01;6.80;99.90
7936;DHT22;4013;49.744;8.118;2023-02-01T10:08:37;6.80;99.90
7936;DHT22;4013;49.744;8.118;2023-02-01T10:11:18;6.90;99.90
7936;DHT22;4013;49.744;8.118;2023-02-01T10:13:53;7.00;99.90
7936;DHT22;4013;49.744;8.118;2023-02-01T10:16:34;7.00;99.90
7936;DHT22;4013;49.744;8.118;2023-02-01T10:19:27;6.90;99.90
7936;DHT22;4013;49.744;8.118;2023-02-01T10:22:00;6.90;99.90
7936;DHT22;4013;49.744;8.118;2023-02-01T10:24:36;6.90;99.90
7936;DHT22;4013;49.744;8.118;2023-02-01T10:27:12;6.90;99.90
7936;DHT22;4013;49.744;8.118;2023-02-01T10:29:42;7.00;99.90
7936;DHT22;4013;49.744;8.118;2023-02-01T10:32:14;7.00;99.90
7936;DHT22;4013;49.744;8.118;2023-02-01T10:34:44;7.10;99.90
7936;DHT22;4013;49.744;8.118;2023-02-01T10:37:26;7.10;99.90
7936;DHT22;4013;49.744;8.118;2023-02-01T10:39:55;7.10;99.90
7936;DHT22;4013;49.744;8.118;2023-02-01T10:42:26;7.10;99.90
7936;DHT22;4013;49.744;8.118;2023-02-01T10:44:55;7.10;99.90
7936;DHT22;4013;49.744;8.118;2023-02-01T10:47:25;7.10;99.90
7936;DHT22;4013;49.744;8.118;2023-02-01T10:49:58;7.10;99.90
7936;DHT22;4013;49.744;8.118;2023-02-01T10:52:36;7.10;99.90
7936;DHT22;4013;49.744;8.118;2023-02-01T10:55:33;7.10;99.90
7936;DHT22;4013;49.744;8.118;2023-02-01T10:58:02;7.10;99.90
7936;DHT22;4013;49.744;8.118;2023-02-01T11:00:45;7.10;99.90
7936;DHT22;4013;49.744;8.118;2023-02-01T11:03:38;7.10;99.90
7936;DHT22;4013;49.744;8.118;2023-02-01T11:06:16;7.10;99.90
7936;DHT22;4013;49.744;8.118;2023-02-01T11:08:48;7.20;99.90
7936;DHT22;4013;49.744;8.118;2023-02-01T11:11:16;7.10;99.90
7936;DHT22;4013;49.744;8.118;2023-02-01T11:13:44;7.10;99.90
7936;DHT22;4013;49.744;8.118;2023-02-01T11:16:13;7.10;99.90
7936;DHT22;4013;49.744;8.118;2023-02-01T11:18:42;7.10;99.90
7936;DHT22;4013;49.744;8.118;2023-02-01T11:21:10;7.10;99.90
7936;DHT22;4013;49.744;8.118;2023-02-01T11:23:43;7.00;99.90
7936;DHT22;4013;49.744;8.118;2023-02-01T11:26:13;7.00;99.90
7936;DHT22;4013;49.744;8.118;2023-02-01T11:28:46;6.90;99.90
7936;DHT22;4013;49.744;8.118;2023-02-01T11:31:14;6.90;99.90
7936;DHT22;4013;49.744;8.118;2023-02-01T11:33:48;7.00;99.90
7936;DHT22;4013;49.744;8.118;2023-02-01T11:36:17;7.00;99.90
7936;DHT22;4013;49.744;8.118;2023-02-01T11:38:50;6.90;99.90
7936;DHT22;4013;49.744;8.118;2023-02-01T11:41:22;6.90;99.90
7936;DHT22;4013;49.744;8.118;2023-02-01T11:43:54;7.00;99.90
7936;DHT22;4013;49.744;8.118;2023-02-01T11:46:26;6.90;99.90
7936;DHT22;4013;49.744;8.118;2023-02-01T11:49:12;6.90;99.90
7936;DHT22;4013;49.744;8.118;2023-02-01T11:51:47;6.90;99.90
7936;DHT22;4013;49.744;8.118;2023-02-01T11:54:37;6.90;99.90
7936;DHT22;4013;49.744;8.118;2023-02-01T11:57:18;6.90;99.90
7936;DHT22;4013;49.744;8.118;2023-02-01T12:00:02;6.90;99.90
7936;DHT22;4013;49.744;8.118;2023-02-01T12:02:49;6.80;99.90
7936;DHT22;4013;49.744;8.118;2023-02-01T12:05:29;6.80;99.90
7936;DHT22;4013;49.744;8.118;2023-02-01T12:08:21;6.80;99.90
7936;DHT22;4013;49.744;8.118;2023-02-01T12:11:00;6.80;99.90
7936;DHT22;4013;49.744;8.118;2023-02-01T12:13:43;6.80;99.90
7936;DHT22;4013;49.744;8.118;2023-02-01T12:16:22;6.80;99.90
7936;DHT22;4013;49.744;8.118;2023-02-01T12:19:09;6.80;99.90
7936;DHT22;4013;49.744;8.118;2023-02-01T12:21:52;6.80;99.90
7936;DHT22;4013;49.744;8.118;2023-02-01T12:24:32;6.90;99.90
7936;DHT22;4013;49.744;8.118;2023-02-01T12:27:27;6.90;99.90
7936;DHT22;4013;49.744;8.118;2023-02-01T12:30:12;6.90;99.90
7936;DHT22;4013;49.744;8.118;2023-02-01T12:32:53;7.00;99.90
7936;DHT22;4013;49.744;8.118;2023-02-01T12:35:44;7.00;99.90
7936;DHT22;4013;49.744;8.118;2023-02-01T12:38:29;7.10;99.90
7936;DHT22;4013;49.744;8.118;2023-02-01T12:41:11;7.30;99.90
7936;DHT22;4013;49.744;8.118;2023-02-01T12:43:45;7.40;99.90
7936;DHT22;4013;49.744;8.118;2023-02-01T12:46:17;7.40;99.90
7936;DHT22;4013;49.744;8.118;2023-02-01T12:48:54;7.40;99.90
7936;DHT22;4013;49.744;8.118;2023-02-01T12:51:26;7.50;99.90
7936;DHT22;4013;49.744;8.118;2023-02-01T12:54:03;7.40;99.90
7936;DHT22;4013;49.744;8.118;2023-02-01T12:56:36;7.40;99.90
7936;DHT22;4013;49.744;8.118;2023-02-01T12:59:07;7.50;99.90
7936;DHT22;4013;49.744;8.118;2023-02-01T13:01:39;7.50;99.90
7936;DHT22;4013;49.744;8.118;2023-02-01T13:04:12;7.40;99.90
7936;DHT22;4013;49.744;8.118;2023-02-01T13:06:45;7.40;99.90
7936;DHT22;4013;49.744;8.118;2023-02-01T13:09:21;7.30;99.90
7936;DHT22;4013;49.744;8.118;2023-02-01T13:11:52;7.30;99.90
7936;DHT22;4013;49.744;8.118;2023-02-01T13:14:25;7.30;99.90
7936;DHT22;4013;49.744;8.118;2023-02-01T13:17:00;7.30;99.90
7936;DHT22;4013;49.744;8.118;2023-02-01T13:19:40;7.20;99.90
7936;DHT22;4013;49.744;8.118;2023-02-01T13:22:11;7.20;99.90
7936;DHT22;4013;49.744;8.118;2023-02-01T13:24:43;7.20;99.90
7936;DHT22;4013;49.744;8.118;2023-02-01T13:27:12;7.20;99.90
7936;DHT22;4013;49.744;8.118;2023-02-01T13:29:45;7.20;99.90
7936;DHT22;4013;49.744;8.118;2023-02-01T13:32:30;7.20;99.90
7936;DHT22;4013;49.744;8.118;2023-02-01T13:35:21;7.30;99.90
7936;DHT22;4013;49.744;8.118;2023-02-01T13:38:06;7.30;99.90
7936;DHT22;4013;49.744;8.118;2023-02-01T13:40:40;7.30;99.90
7936;DHT22;4013;49.744;8.118;2023-02-01T13:43:13;7.50;99.90
7936;DHT22;4013;49.744;8.118;2023-02-01T13:45:47;7.60;99.90
7936;DHT22;4013;49.744;8.118;2023-02-01T13:48:20;7.60;99.90
7936;DHT22;4013;49.744;8.118;2023-02-01T13:50:52;7.60;99.90
7936;DHT22;4013;49.744;8.118;2023-02-01T13:53:25;7.50;99.90
7936;DHT22;4013;49.744;8.118;2023-02-01T13:55:58;7.50;99.90
7936;DHT22;4013;49.744;8.118;2023-02-01T13:58:36;7.50;99.90
7936;DHT22;4013;49.744;8.118;2023-02-01T14:01:33;7.60;99.90
7936;DHT22;4013;49.744;8.118;2023-02-01T14:04:03;7.70;99.90
7936;DHT22;4013;49.744;8.118;2023-02-01T14:06:44;7.60;99.90
7936;DHT22;4013;49.744;8.118;2023-02-01T14:09:32;7.60;99.90
7936;DHT22;4013;49.744;8.118;2023-02-01T14:12:43;7.60;99.90
7936;DHT22;4013;49.744;8.118;2023-02-01T14:15:21;7.50;99.90
7936;DHT22;4013;49.744;8.118;2023-02-01T14:17:48;7.40;99.90
7936;DHT22;4013;49.744;8.118;2023-02-01T14:20:43;7.40;99.90
7936;DHT22;4013;49.744;8.118;2023-02-01T14:23:23;7.30;99.90
7936;DHT22;4013;49.744;8.118;2023-02-01T14:26:11;7.30;99.90
7936;DHT22;4013;49.744;8.118;2023-02-01T14:28:44;7.30;99.90
7936;DHT22;4013;49.744;8.118;2023-02-01T14:31:53;7.30;99.90
7936;DHT22;4013;49.744;8.118;2023-02-01T14:34:29;7.40;99.90
7936;DHT22;4013;49.744;8.118;2023-02-01T14:36:58;7.40;99.90
7936;DHT22;4013;49.744;8.118;2023-02-01T14:39:49;7.40;99.90
7936;DHT22;4013;49.744;8.118;2023-02-01T14:42:24;7.50;99.90
7936;DHT22;4013;49.744;8.118;2023-02-01T14:44:55;7.50;99.90
7936;DHT22;4013;49.744;8.118;2023-02-01T14:47:32;7.50;99.90
7936;DHT22;4013;49.744;8.118;2023-02-01T14:50:27;7.40;99.90
7936;DHT22;4013;49.744;8.118;2023-02-01T14:53:20;7.40;99.90
7936;DHT22;4013;49.744;8.118;2023-02-01T14:55:52;7.40;99.90
7936;DHT22;4013;49.744;8.118;2023-02-01T14:58:29;7.40;99.90
7936;DHT22;4013;49.744;8.118;2023-02-01T15:01:01;7.40;99.90
7936;DHT22;4013;49.744;8.118;2023-02-01T15:03:56;7.40;99.90
7936;DHT22;4013;49.744;8.118;2023-02-01T15:06:32;7.40;99.90
7936;DHT22;4013;49.744;8.118;2023-02-01T15:09:03;7.40;99.90
7936;DHT22;4013;49.744;8.118;2023-02-01T15:11:30;7.50;99.90
7936;DHT22;4013;49.744;8.118;2023-02-01T15:13:57;7.50;99.90
7936;DHT22;4013;49.744;8.118;2023-02-01T15:16:27;7.50;99.90
7936;DHT22;4013;49.744;8.118;2023-02-01T15:19:11;7.50;99.90
7936;DHT22;4013;49.744;8.118;2023-02-01T15:21:48;7.50;99.90
7936;DHT22;4013;49.744;8.118;2023-02-01T15:24:20;7.50;99.90
7936;DHT22;4013;49.744;8.118;2023-02-01T15:26:48;7.50;99.90
7936;DHT22;4013;49.744;8.118;2023-02-01T15:29:18;7.50;99.90
7936;DHT22;4013;49.744;8.118;2023-02-01T15:31:49;7.40;99.90
7936;DHT22;4013;49.744;8.118;2023-02-01T15:34:17;7.40;99.90
7936;DHT22;4013;49.744;8.118;2023-02-01T15:36:45;7.30;99.90
7936;DHT22;4013;49.744;8.118;2023-02-01T15:39:15;7.30;99.90
7936;DHT22;4013;49.744;8.118;2023-02-01T15:41:47;7.30;99.90
7936;DHT22;4013;49.744;8.118;2023-02-01T15:44:20;7.30;99.90
7936;DHT22;4013;49.744;8.118;2023-02-01T15:46:50;7.20;99.90
7936;DHT22;4013;49.744;8.118;2023-02-01T15:49:20;7.30;99.90
7936;DHT22;4013;49.744;8.118;2023-02-01T15:51:50;7.20;99.90
7936;DHT22;4013;49.744;8.118;2023-02-01T15:54:19;7.20;99.90
7936;DHT22;4013;49.744;8.118;2023-02-01T15:56:50;7.20;99.90
7936;DHT22;4013;49.744;8.118;2023-02-01T15:59:21;7.20;99.90
7936;DHT22;4013;49.744;8.118;2023-02-01T16:01:50;7.20;99.90
7936;DHT22;4013;49.744;8.118;2023-02-01T16:04:20;7.20;99.90
7936;DHT22;4013;49.744;8.118;2023-02-01T16:06:49;7.20;99.90
7936;DHT22;4013;49.744;8.118;2023-02-01T16:09:18;7.10;99.90
7936;DHT22;4013;49.744;8.118;2023-02-01T16:11:53;7.20;99.90
7936;DHT22;4013;49.744;8.118;2023-02-01T16:14:21;7.20;99.90
7936;DHT22;4013;49.744;8.118;2023-02-01T16:16:50;7.20;99.90
7936;DHT22;4013;49.744;8.118;2023-02-01T16:19:17;7.10;99.90
7936;DHT22;4013;49.744;8.118;2023-02-01T16:21:44;7.10;99.90
7936;DHT22;4013;49.744;8.118;2023-02-01T16:24:11;7.10;99.90
7936;DHT22;4013;49.744;8.118;2023-02-01T16:26:38;7.10;99.90
7936;DHT22;4013;49.744;8.118;2023-02-01T16:29:06;7.20;99.90
7936;DHT22;4013;49.744;8.118;2023-02-01T16:31:36;7.20;99.90
7936;DHT22;4013;49.744;8.118;2023-02-01T16:34:04;7.10;99.90
7936;DHT22;4013;49.744;8.118;2023-02-01T16:36:33;7.10;99.90
7936;DHT22;4013;49.744;8.118;2023-02-01T16:39:01;7.10;99.90
7936;DHT22;4013;49.744;8.118;2023-02-01T16:41:29;7.10;99.90
7936;DHT22;4013;49.744;8.118;2023-02-01T16:43:56;7.00;99.90
7936;DHT22;4013;49.744;8.118;2023-02-01T16:46:25;7.00;99.90
7936;DHT22;4013;49.744;8.118;2023-02-01T16:48:54;7.00;99.90
7936;DHT22;4013;49.744;8.118;2023-02-01T16:51:25;7.00;99.90
7936;DHT22;4013;49.744;8.118;2023-02-01T16:53:53;7.00;99.90
7936;DHT22;4013;49.744;8.118;2023-02-01T16:56:24;7.00;99.90
7936;DHT22;4013;49.744;8.118;2023-02-01T16:58:52;7.00;99.90